Time;durP1;ratioP1;P1;durP2;ratioP2;P2;SDS_P1;SDS_P2;PMS_P1;PMS_P2;Temp;Humidity;BMP_temperature;BMP_pressure;BME280_temperature;BME280_humidity;BME280_pressure;Samples;Min_cycle;Max_cycle;Signal;HPM_P1;HPM_P2
2023/08/26 04:06:15;;;;;;;2.43;2.07;;;18.90;99.90;;;;;;5297548;23;20525;-64
2023/08/26 04:08:41;;;;;;;2.57;2.10;;;18.90;99.90;;;;;;5016326;28;20937;-65
2023/08/26 04:11:07;;;;;;;2.17;2.03;;;18.80;99.90;;;;;;5016504;28;20425;-65
2023/08/26 04:13:33;;;;;;;2.30;2.10;;;18.90;99.90;;;;;;5016304;28;20233;-66
2023/08/26 04:16:02;;;;;;;1.67;1.57;;;18.80;99.90;;;;;;5016360;28;20428;-65
2023/08/26 04:18:28;;;;;;;2.73;2.07;;;18.80;99.90;;;;;;5016310;28;20202;-65
2023/08/26 04:20:54;;;;;;;2.20;2.00;;;18.80;99.90;;;;;;5016397;28;20445;-66
2023/08/26 04:23:19;;;;;;;4.03;2.40;;;18.80;99.90;;;;;;5016165;28;20167;-65
2023/08/26 04:25:45;;;;;;;1.77;1.57;;;18.80;99.90;;;;;;5015425;28;20608;-65
2023/08/26 04:28:17;;;;;;;2.90;2.17;;;18.80;99.90;;;;;;5016433;28;20525;-66
2023/08/26 04:30:44;;;;;;;2.60;2.40;;;18.90;99.90;;;;;;5016387;28;20178;-66
2023/08/26 04:33:10;;;;;;;2.70;2.50;;;18.90;99.90;;;;;;5014871;28;20405;-66
2023/08/26 04:35:36;;;;;;;2.70;2.50;;;18.90;99.90;;;;;;5014938;28;20441;-65
2023/08/26 04:38:03;;;;;;;3.30;2.93;;;18.90;99.90;;;;;;5016028;28;20175;-65
2023/08/26 04:40:29;;;;;;;2.03;1.90;;;18.90;99.90;;;;;;5016243;28;20424;-66
2023/08/26 04:42:56;;;;;;;2.10;2.00;;;19.00;99.90;;;;;;5015852;28;20404;-66
2023/08/26 04:45:22;;;;;;;3.73;3.10;;;19.00;99.90;;;;;;5015802;28;20414;-65
2023/08/26 04:47:49;;;;;;;3.20;3.00;;;19.00;99.90;;;;;;5016034;28;20413;-66
2023/08/26 04:50:15;;;;;;;2.80;2.60;;;19.00;99.90;;;;;;5016092;28;20492;-66
2023/08/26 04:52:42;;;;;;;3.00;2.80;;;19.00;99.90;;;;;;5015980;28;20841;-66
2023/08/26 04:55:08;;;;;;;2.70;2.50;;;19.00;99.90;;;;;;5015469;28;20445;-66
2023/08/26 04:57:34;;;;;;;2.90;2.40;;;19.00;99.90;;;;;;5015698;28;20485;-66
2023/08/26 05:00:00;;;;;;;2.40;2.20;;;19.00;99.90;;;;;;5015730;28;20917;-66
2023/08/26 05:02:25;;;;;;;2.30;2.20;;;19.00;99.90;;;;;;5015279;28;20276;-66
2023/08/26 05:04:53;;;;;;;2.93;2.73;;;19.00;99.90;;;;;;5015079;28;20178;-66
2023/08/26 05:07:19;;;;;;;3.80;3.17;;;19.10;99.90;;;;;;5015127;28;20218;-66
2023/08/26 05:09:45;;;;;;;3.27;2.73;;;19.10;99.90;;;;;;5015334;28;20822;-66
2023/08/26 05:12:11;;;;;;;3.90;2.50;;;19.00;99.90;;;;;;5014204;28;20484;-66
2023/08/26 05:14:36;;;;;;;2.37;2.17;;;19.00;99.90;;;;;;5015273;28;20175;-66
2023/08/26 05:17:02;;;;;;;2.60;2.40;;;19.00;99.90;;;;;;5015065;28;20207;-65
2023/08/26 05:19:27;;;;;;;2.83;2.63;;;19.00;99.90;;;;;;5015274;28;20175;-66
2023/08/26 05:21:53;;;;;;;3.07;2.77;;;19.00;99.90;;;;;;5015358;28;20621;-66
2023/08/26 05:24:18;;;;;;;2.90;2.80;;;19.00;99.90;;;;;;5014933;28;20198;-66
2023/08/26 05:26:44;;;;;;;3.00;2.70;;;19.00;99.90;;;;;;5014915;28;20221;-66
2023/08/26 05:29:09;;;;;;;3.40;2.83;;;19.00;99.90;;;;;;5015231;28;20178;-66
2023/08/26 05:31:36;;;;;;;2.93;2.60;;;19.00;99.90;;;;;;5015180;28;20217;-66
2023/08/26 05:34:01;;;;;;;6.27;3.90;;;19.00;99.90;;;;;;5014952;28;20233;-66
2023/08/26 05:36:27;;;;;;;3.73;2.80;;;19.00;99.90;;;;;;5013872;28;20463;-66
2023/08/26 05:38:53;;;;;;;2.87;2.37;;;19.00;99.90;;;;;;5014991;28;20170;-67
2023/08/26 05:41:18;;;;;;;2.80;2.60;;;19.10;99.90;;;;;;5014974;28;20171;-66
2023/08/26 05:43:44;;;;;;;3.20;2.90;;;19.10;99.90;;;;;;5014750;28;20186;-66
2023/08/26 05:46:09;;;;;;;3.50;3.20;;;19.10;99.90;;;;;;5014707;28;20684;-66
2023/08/26 05:48:35;;;;;;;3.20;2.93;;;19.20;99.90;;;;;;5014972;28;20233;-66
2023/08/26 05:51:00;;;;;;;3.40;3.10;;;19.30;99.90;;;;;;5014755;28;20237;-66
2023/08/26 05:53:28;;;;;;;3.53;3.23;;;19.20;99.90;;;;;;5014599;28;20207;-66
2023/08/26 05:55:54;;;;;;;4.50;3.40;;;19.30;99.90;;;;;;5014523;28;20206;-67
2023/08/26 05:58:19;;;;;;;3.40;3.10;;;19.40;99.90;;;;;;5014768;28;20858;-66
2023/08/26 06:00:45;;;;;;;2.97;2.77;;;19.40;99.90;;;;;;5014437;28;20968;-67
2023/08/26 06:03:11;;;;;;;4.20;3.30;;;19.50;99.90;;;;;;5014688;28;20254;-67
2023/08/26 06:05:36;;;;;;;3.53;3.20;;;19.50;99.90;;;;;;5014175;28;20189;-67
2023/08/26 06:08:02;;;;;;;3.50;3.20;;;19.70;99.90;;;;;;5014197;28;20195;-67
2023/08/26 06:10:28;;;;;;;2.87;2.60;;;19.70;99.90;;;;;;5014288;28;20179;-67
2023/08/26 06:12:53;;;;;;;2.97;2.77;;;19.70;99.90;;;;;;5014322;28;20178;-67
2023/08/26 06:15:19;;;;;;;4.80;3.87;;;19.80;99.90;;;;;;5013879;28;20629;-69
2023/08/26 06:17:44;;;;;;;3.03;2.77;;;19.80;99.90;;;;;;5014172;28;20534;-66
2023/08/26 06:20:10;;;;;;;3.43;3.23;;;19.90;99.90;;;;;;5014368;28;20175;-66
2023/08/26 06:22:36;;;;;;;2.70;2.30;;;20.00;99.90;;;;;;5014039;28;20171;-66
2023/08/26 06:25:02;;;;;;;3.50;2.60;;;20.10;99.90;;;;;;5013762;28;20475;-66
2023/08/26 06:27:27;;;;;;;3.80;3.20;;;20.10;99.90;;;;;;5014168;28;20198;-66
2023/08/26 06:29:54;;;;;;;3.00;2.70;;;20.10;99.90;;;;;;5014078;28;20174;-66
2023/08/26 06:32:21;;;;;;;3.10;2.60;;;20.10;99.90;;;;;;5011321;28;20653;-65
2023/08/26 06:34:47;;;;;;;2.90;2.60;;;20.00;99.90;;;;;;5013077;28;20754;-66
2023/08/26 06:37:14;;;;;;;2.53;2.33;;;20.00;99.90;;;;;;5013204;28;20519;-66
2023/08/26 06:39:39;;;;;;;3.00;2.70;;;20.00;99.90;;;;;;5013380;28;20768;-65
2023/08/26 06:42:05;;;;;;;4.07;3.67;;;20.10;99.90;;;;;;5013219;28;20396;-66
2023/08/26 06:44:31;;;;;;;3.20;2.90;;;20.20;99.90;;;;;;5012036;28;20201;-66
2023/08/26 06:46:57;;;;;;;2.83;2.63;;;20.20;99.90;;;;;;5013105;28;20434;-66
2023/08/26 06:49:22;;;;;;;2.63;2.43;;;20.30;99.90;;;;;;5013892;28;20167;-67
2023/08/26 06:51:48;;;;;;;2.23;2.00;;;20.30;99.90;;;;;;5013445;28;20175;-66
2023/08/26 06:54:13;;;;;;;2.13;1.93;;;20.40;99.90;;;;;;5013143;28;20217;-67
2023/08/26 06:56:39;;;;;;;3.00;2.63;;;20.50;99.90;;;;;;5013593;28;20242;-66
2023/08/26 06:59:06;;;;;;;2.40;2.30;;;20.50;99.90;;;;;;5013858;28;20594;-65
2023/08/26 07:01:34;;;;;;;2.23;2.13;;;20.60;99.90;;;;;;5013548;28;20435;-66
2023/08/26 07:04:06;;;;;;;2.13;2.03;;;20.70;99.90;;;;;;5013184;28;20708;-69
2023/08/26 07:06:33;;;;;;;2.70;2.50;;;20.80;99.90;;;;;;5013340;28;20435;-70
2023/08/26 07:08:58;;;;;;;2.97;2.40;;;20.90;99.90;;;;;;5013323;28;20426;-71
2023/08/26 07:11:24;;;;;;;2.63;2.40;;;20.90;99.90;;;;;;5013377;28;20376;-69
2023/08/26 07:13:49;;;;;;;2.23;2.03;;;21.00;99.90;;;;;;5013015;28;20175;-66
2023/08/26 07:16:15;;;;;;;1.83;1.73;;;21.00;99.90;;;;;;5013342;28;20711;-67
2023/08/26 07:18:41;;;;;;;2.13;1.93;;;20.90;99.90;;;;;;5013263;28;20517;-67
2023/08/26 07:21:06;;;;;;;2.60;2.50;;;20.90;99.90;;;;;;5013242;28;20170;-67
2023/08/26 07:23:32;;;;;;;3.20;2.70;;;20.90;99.90;;;;;;5012938;28;20207;-67
2023/08/26 07:25:58;;;;;;;1.97;1.87;;;20.90;99.90;;;;;;5013258;28;20546;-68
2023/08/26 07:28:23;;;;;;;2.40;2.20;;;20.90;99.90;;;;;;5013212;28;20184;-68
2023/08/26 07:30:51;;;;;;;2.90;2.70;;;20.90;99.90;;;;;;5013476;28;20888;-64
2023/08/26 07:33:16;;;;;;;2.10;1.90;;;20.90;99.90;;;;;;5013144;28;20172;-67
2023/08/26 07:35:43;;;;;;;2.67;2.30;;;20.90;99.90;;;;;;5012680;28;20424;-68
2023/08/26 07:38:09;;;;;;;2.47;2.27;;;20.90;99.90;;;;;;5012900;28;20172;-68
2023/08/26 07:40:35;;;;;;;2.60;2.13;;;20.90;99.90;;;;;;5013067;28;20779;-68
2023/08/26 07:43:00;;;;;;;4.60;2.83;;;21.00;99.90;;;;;;5013341;28;20629;-65
2023/08/26 07:45:26;;;;;;;4.30;3.40;;;21.20;99.90;;;;;;5012671;28;20427;-64
2023/08/26 07:47:52;;;;;;;2.93;2.60;;;21.90;99.90;;;;;;5013091;28;20640;-67
2023/08/26 07:50:17;;;;;;;2.20;2.07;;;22.80;99.90;;;;;;5013042;28;20261;-67
2023/08/26 07:52:44;;;;;;;2.37;2.17;;;23.50;99.90;;;;;;5012942;28;20180;-67
2023/08/26 07:55:09;;;;;;;5.17;2.63;;;24.00;99.90;;;;;;5012666;28;20264;-69
2023/08/26 07:57:35;;;;;;;2.13;2.03;;;24.30;99.90;;;;;;5012965;28;20558;-67
2023/08/26 08:00:02;;;;;;;3.23;1.93;;;24.40;99.90;;;;;;5015012;28;20178;-68
2023/08/26 08:02:28;;;;;;;2.80;2.60;;;24.60;99.90;;;;;;5016598;28;20230;-67
2023/08/26 08:04:55;;;;;;;2.90;2.57;;;25.20;99.90;;;;;;5016150;28;20804;-69
2023/08/26 08:07:20;;;;;;;2.57;2.37;;;26.00;99.90;;;;;;5016023;28;20463;-67
2023/08/26 08:09:46;;;;;;;4.43;4.07;;;26.50;99.90;;;;;;5014870;28;20919;-64
2023/08/26 08:12:14;;;;;;;3.10;2.83;;;26.80;99.90;;;;;;5015769;28;20288;-65
2023/08/26 08:14:41;;;;;;;2.40;2.00;;;26.90;99.90;;;;;;5016095;28;20262;-64
2023/08/26 08:17:07;;;;;;;2.33;2.13;;;26.80;99.90;;;;;;5015985;28;20468;-67
2023/08/26 08:19:38;;;;;;;2.20;2.00;;;26.50;99.90;;;;;;5016301;28;20406;-65
2023/08/26 08:22:04;;;;;;;1.97;1.83;;;26.20;99.90;;;;;;5016523;28;20438;-64
2023/08/26 08:24:29;;;;;;;2.70;2.50;;;25.90;99.90;;;;;;5015853;28;20416;-64
2023/08/26 08:26:55;;;;;;;3.10;2.80;;;25.50;99.90;;;;;;5016198;28;20198;-64
2023/08/26 08:29:20;;;;;;;2.20;2.10;;;25.00;99.90;;;;;;5016019;28;20208;-65
2023/08/26 08:31:46;;;;;;;2.50;2.20;;;24.40;99.90;;;;;;5016201;28;20524;-65
2023/08/26 08:34:11;;;;;;;2.37;2.03;;;24.00;99.90;;;;;;5015413;28;20214;-65
2023/08/26 08:36:37;;;;;;;2.50;2.30;;;23.70;99.90;;;;;;5015901;28;20214;-65
2023/08/26 08:39:03;;;;;;;5.77;5.00;;;23.50;99.90;;;;;;5016026;28;20175;-64
2023/08/26 08:41:33;;;;;;;3.97;3.57;;;23.40;99.90;;;;;;5015960;28;20163;-64
2023/08/26 08:44:10;;;;;;;3.33;2.50;;;23.30;99.90;;;;;;5015672;28;20250;-64
2023/08/26 08:46:37;;;;;;;2.83;2.57;;;23.10;99.90;;;;;;5015653;28;20434;-62
2023/08/26 08:49:03;;;;;;;1.90;1.80;;;23.00;99.90;;;;;;5015613;28;20416;-62
2023/08/26 08:51:30;;;;;;;2.83;2.63;;;22.80;99.90;;;;;;5015811;28;20719;-63
2023/08/26 08:53:57;;;;;;;2.37;2.17;;;22.70;99.90;;;;;;5015299;28;20775;-62
2023/08/26 08:56:23;;;;;;;2.50;2.33;;;22.60;99.90;;;;;;5015436;28;20513;-61
2023/08/26 08:58:51;;;;;;;3.20;2.80;;;22.50;99.90;;;;;;5015534;28;20463;-62
2023/08/26 09:01:19;;;;;;;2.53;2.30;;;22.50;99.90;;;;;;5015350;28;20402;-67
2023/08/26 09:03:46;;;;;;;2.60;2.40;;;22.50;99.90;;;;;;5014980;28;20442;-65
2023/08/26 09:06:12;;;;;;;2.43;2.23;;;22.50;99.90;;;;;;5015436;28;20455;-66
2023/08/26 09:08:38;;;;;;;2.50;2.30;;;22.60;99.90;;;;;;5015350;28;20423;-68
2023/08/26 09:11:05;;;;;;;2.83;2.63;;;22.80;99.90;;;;;;5015104;28;20414;-64
2023/08/26 09:13:30;;;;;;;3.23;2.80;;;23.00;99.90;;;;;;5014980;28;20866;-65
2023/08/26 09:15:56;;;;;;;2.33;2.13;;;23.10;99.90;;;;;;5014973;28;20429;-64
2023/08/26 09:18:22;;;;;;;3.50;1.93;;;23.20;99.90;;;;;;5013971;28;20209;-68
2023/08/26 09:20:47;;;;;;;2.00;1.90;;;23.10;99.90;;;;;;5015202;28;20404;-63
2023/08/26 09:23:13;;;;;;;3.27;2.30;;;23.10;99.90;;;;;;5015125;28;20163;-68
2023/08/26 09:25:53;;;;;;;3.80;2.03;;;23.10;99.90;;;;;;5014545;28;20261;-63
2023/08/26 09:28:20;;;;;;;2.20;2.10;;;23.10;99.90;;;;;;5015032;28;20297;-67
2023/08/26 09:31:07;;;;;;;2.37;2.27;;;23.10;99.90;;;;;;5015056;28;20457;-63
2023/08/26 09:33:36;;;;;;;4.33;2.80;;;23.00;99.90;;;;;;5014744;28;20406;-63
2023/08/26 09:36:02;;;;;;;2.90;2.70;;;23.10;99.90;;;;;;5014733;28;20457;-63
2023/08/26 09:38:31;;;;;;;2.63;2.43;;;23.20;99.90;;;;;;5014885;28;20893;-62
2023/08/26 09:40:57;;;;;;;3.07;2.87;;;23.40;99.90;;;;;;5015099;28;20470;-64
2023/08/26 09:43:23;;;;;;;2.83;2.50;;;23.40;99.90;;;;;;5015008;28;20402;-64
2023/08/26 09:45:49;;;;;;;2.60;2.17;;;23.50;99.90;;;;;;5014164;28;20404;-65
2023/08/26 09:48:22;;;;;;;1.83;1.73;;;23.50;99.90;;;;;;5014513;28;20171;-64
2023/08/26 09:50:47;;;;;;;2.07;1.97;;;23.50;99.90;;;;;;5014805;28;20899;-66
2023/08/26 09:53:25;;;;;;;2.20;2.10;;;23.70;99.90;;;;;;5014548;28;20439;-68
2023/08/26 09:55:51;;;;;;;2.63;2.40;;;23.90;99.90;;;;;;5014373;28;20182;-65
2023/08/26 09:58:16;;;;;;;6.07;2.77;;;24.10;99.90;;;;;;5014599;28;20891;-65
2023/08/26 10:00:44;;;;;;;3.17;2.10;;;24.20;99.90;;;;;;5014454;28;20513;-65
2023/08/26 10:03:11;;;;;;;2.77;2.57;;;24.20;99.90;;;;;;5029684;28;20659;-64
2023/08/26 10:05:39;;;;;;;2.50;2.30;;;24.30;99.90;;;;;;5013846;28;20405;-66
2023/08/26 10:08:08;;;;;;;3.40;2.53;;;24.50;99.90;;;;;;5014223;28;20403;-64
2023/08/26 10:10:47;;;;;;;2.57;2.47;;;24.60;99.90;;;;;;5014269;28;20691;-63
2023/08/26 10:13:18;;;;;;;4.40;2.50;;;24.80;99.90;;;;;;5014252;28;20502;-65
2023/08/26 10:15:44;;;;;;;2.90;2.27;;;24.80;99.90;;;;;;5013821;28;20408;-66
2023/08/26 10:18:24;;;;;;;2.70;2.50;;;24.80;99.90;;;;;;5014230;28;20493;-66
2023/08/26 10:20:51;;;;;;;3.10;2.90;;;24.80;99.90;;;;;;5014163;28;20930;-65
2023/08/26 10:23:17;;;;;;;2.43;2.23;;;24.70;99.90;;;;;;5013806;28;20476;-63
2023/08/26 10:25:43;;;;;;;2.50;2.30;;;24.50;99.90;;;;;;5013716;28;20484;-64
2023/08/26 10:28:10;;;;;;;4.40;2.70;;;24.30;99.90;;;;;;5014026;28;20413;-64
2023/08/26 10:30:36;;;;;;;2.77;2.57;;;24.00;99.90;;;;;;5014084;28;20408;-65
2023/08/26 10:33:04;;;;;;;4.23;2.13;;;23.70;99.90;;;;;;5013796;28;20911;-64
2023/08/26 10:35:30;;;;;;;3.23;2.40;;;23.50;99.90;;;;;;5013551;28;20412;-65
2023/08/26 10:38:09;;;;;;;2.70;2.50;;;23.20;99.90;;;;;;5013925;28;20464;-68
2023/08/26 10:40:34;;;;;;;3.00;2.37;;;22.90;99.90;;;;;;5013945;28;20182;-67
2023/08/26 10:43:14;;;;;;;2.60;2.40;;;22.70;99.90;;;;;;5013862;28;20914;-68
2023/08/26 10:45:47;;;;;;;2.50;2.40;;;22.50;99.90;;;;;;5013302;28;20187;-66
2023/08/26 10:48:13;;;;;;;2.50;2.30;;;22.30;99.90;;;;;;5013902;28;20406;-68
2023/08/26 10:50:40;;;;;;;2.10;1.90;;;22.40;99.90;;;;;;5013488;28;20408;-68
2023/08/26 10:53:14;;;;;;;3.60;2.20;;;22.30;99.90;;;;;;5013582;28;20722;-68
2023/08/26 10:55:40;;;;;;;2.20;2.00;;;22.30;99.90;;;;;;5013101;28;20429;-68
2023/08/26 10:58:14;;;;;;;2.40;2.00;;;22.30;99.90;;;;;;5013231;28;20930;-68
2023/08/26 11:00:42;;;;;;;2.50;2.30;;;22.30;99.90;;;;;;5013558;28;20197;-69
2023/08/26 11:03:09;;;;;;;2.53;2.20;;;22.30;99.90;;;;;;5012179;28;20479;-69
2023/08/26 11:05:41;;;;;;;2.53;2.33;;;22.20;99.90;;;;;;5013102;28;20444;-69
2023/08/26 11:08:07;;;;;;;1.90;1.80;;;22.20;99.90;;;;;;5013355;28;20439;-69
2023/08/26 11:10:35;;;;;;;1.93;1.77;;;22.10;99.90;;;;;;5013451;28;20420;-69
2023/08/26 11:13:01;;;;;;;1.60;1.50;;;22.00;99.90;;;;;;5013560;28;20410;-69
2023/08/26 11:15:43;;;;;;;1.70;1.60;;;21.90;99.90;;;;;;5012976;28;20377;-70
2023/08/26 11:18:10;;;;;;;1.97;1.87;;;21.90;99.90;;;;;;5013312;28;20450;-69
2023/08/26 11:20:37;;;;;;;2.20;2.10;;;21.90;99.90;;;;;;5013630;28;20403;-70
2023/08/26 11:23:05;;;;;;;1.67;1.57;;;22.10;99.90;;;;;;5013215;28;20469;-69
2023/08/26 11:25:32;;;;;;;2.10;1.83;;;22.30;99.90;;;;;;5013035;28;20429;-68
2023/08/26 11:28:07;;;;;;;2.00;1.90;;;22.50;99.90;;;;;;5012937;28;20389;-69
2023/08/26 11:30:37;;;;;;;1.87;1.77;;;22.80;99.90;;;;;;5011592;28;20417;-70
2023/08/26 11:33:11;;;;;;;2.30;2.20;;;23.00;99.90;;;;;;5012886;28;20414;-70
2023/08/26 11:35:45;;;;;;;3.70;2.10;;;23.00;99.90;;;;;;5016844;28;20475;-71
2023/08/26 11:38:11;;;;;;;1.90;1.80;;;23.10;99.90;;;;;;5017279;28;20420;-70
2023/08/26 11:40:37;;;;;;;2.03;1.93;;;23.20;99.90;;;;;;5017160;28;20405;-70
2023/08/26 11:43:13;;;;;;;2.37;2.17;;;23.20;99.90;;;;;;5017000;28;20735;-71
2023/08/26 11:45:41;;;;;;;2.00;1.90;;;23.20;99.90;;;;;;5016295;28;20762;-71
2023/08/26 11:48:10;;;;;;;3.00;2.17;;;23.00;99.90;;;;;;5016699;28;20799;-70
2023/08/26 11:50:36;;;;;;;1.80;1.70;;;23.00;99.90;;;;;;5016961;28;20398;-70
2023/08/26 11:53:03;;;;;;;1.87;1.77;;;23.00;99.90;;;;;;5016913;28;20387;-70
2023/08/26 11:55:30;;;;;;;1.60;1.50;;;23.00;99.90;;;;;;5016548;28;20408;-70
2023/08/26 11:57:57;;;;;;;1.83;1.73;;;22.90;99.90;;;;;;5016442;28;20515;-70
2023/08/26 12:00:37;;;;;;;2.27;1.90;;;22.90;99.90;;;;;;5016614;28;20377;-70
2023/08/26 12:03:04;;;;;;;1.73;1.63;;;22.60;99.90;;;;;;5015102;28;20400;-70
2023/08/26 12:05:44;;;;;;;2.70;2.50;;;22.50;99.90;;;;;;5015885;28;20434;-69
2023/08/26 12:08:14;;;;;;;2.37;2.17;;;22.40;99.90;;;;;;5004372;28;20415;-69
2023/08/26 12:10:40;;;;;;;2.00;1.90;;;22.30;99.90;;;;;;5015247;28;20513;-69
2023/08/26 12:13:06;;;;;;;2.30;2.10;;;22.30;99.90;;;;;;5015477;28;20827;-68
2023/08/26 12:15:31;;;;;;;1.67;1.60;;;22.20;99.90;;;;;;5015864;28;20487;-66
2023/08/26 12:18:00;;;;;;;2.40;2.20;;;22.10;99.90;;;;;;5016077;28;20257;-67
2023/08/26 12:20:26;;;;;;;1.80;1.70;;;22.00;99.90;;;;;;5015196;28;20541;-65
2023/08/26 12:22:54;;;;;;;2.00;1.80;;;22.00;99.90;;;;;;5015474;28;20389;-65
2023/08/26 12:25:36;;;;;;;2.30;2.10;;;21.90;99.90;;;;;;5004016;28;20476;-66
2023/08/26 12:28:14;;;;;;;2.57;2.37;;;21.80;99.90;;;;;;5006444;28;20407;-68
2023/08/26 12:30:44;;;;;;;3.07;1.87;;;21.60;99.90;;;;;;5015601;28;20736;-67
2023/08/26 12:33:10;;;;;;;2.30;2.17;;;21.50;99.90;;;;;;5015535;28;20454;-69
2023/08/26 12:35:36;;;;;;;1.63;1.53;;;21.30;99.90;;;;;;5014949;28;20433;-66
2023/08/26 12:38:02;;;;;;;1.90;1.73;;;21.20;99.90;;;;;;5013600;28;20687;-66
2023/08/26 12:40:46;;;;;;;2.83;2.33;;;21.10;99.90;;;;;;5015337;28;20410;-65
2023/08/26 12:43:11;;;;;;;1.73;1.53;;;21.00;99.90;;;;;;5015507;28;20205;-66
2023/08/26 12:45:37;;;;;;;2.27;2.03;;;20.80;99.90;;;;;;5014109;28;20492;-67
2023/08/26 12:48:03;;;;;;;2.97;2.20;;;20.70;99.90;;;;;;5014755;28;20187;-65
2023/08/26 12:50:31;;;;;;;2.00;1.90;;;20.50;99.90;;;;;;5014801;28;20198;-66
2023/08/26 12:52:56;;;;;;;2.27;2.10;;;20.40;99.90;;;;;;5015305;28;20475;-65
2023/08/26 12:55:23;;;;;;;2.57;2.37;;;20.20;99.90;;;;;;5014866;28;20486;-66
2023/08/26 12:57:48;;;;;;;2.00;1.90;;;20.10;99.90;;;;;;5014684;28;20603;-63
2023/08/26 13:00:14;;;;;;;2.00;1.90;;;20.00;99.90;;;;;;5015503;28;20425;-63
2023/08/26 13:02:40;;;;;;;2.20;2.10;;;19.90;99.90;;;;;;5014344;28;20171;-65
2023/08/26 13:05:08;;;;;;;2.50;2.30;;;19.80;99.90;;;;;;5014932;28;20758;-68
2023/08/26 13:07:34;;;;;;;5.20;2.40;;;19.70;99.90;;;;;;5014869;28;20811;-66
2023/08/26 13:10:00;;;;;;;1.87;1.77;;;19.70;99.90;;;;;;5015097;28;20411;-66
2023/08/26 13:12:25;;;;;;;2.90;2.60;;;19.60;99.90;;;;;;5015080;28;20400;-67
2023/08/26 13:14:51;;;;;;;3.00;2.80;;;19.60;99.90;;;;;;5014852;28;20194;-67
2023/08/26 13:17:17;;;;;;;3.20;2.87;;;19.60;99.90;;;;;;5014688;28;20202;-66
2023/08/26 13:19:42;;;;;;;3.40;3.10;;;19.60;99.90;;;;;;5015154;28;20171;-68
2023/08/26 13:22:08;;;;;;;4.17;2.57;;;19.50;99.90;;;;;;5014735;28;20214;-68
2023/08/26 13:24:36;;;;;;;3.83;2.00;;;19.40;99.90;;;;;;5014777;28;20185;-65
2023/08/26 13:27:02;;;;;;;2.73;2.53;;;19.30;99.90;;;;;;5014913;28;20222;-65
2023/08/26 13:29:27;;;;;;;2.23;2.10;;;19.20;99.90;;;;;;5015289;28;20417;-67
2023/08/26 13:31:53;;;;;;;3.33;2.73;;;19.20;99.90;;;;;;5014516;28;20396;-68
2023/08/26 13:34:18;;;;;;;2.73;2.33;;;19.20;99.90;;;;;;5014706;28;20171;-65
2023/08/26 13:36:44;;;;;;;2.70;2.33;;;19.30;99.90;;;;;;5014076;28;20225;-67
2023/08/26 13:39:09;;;;;;;2.63;2.43;;;19.30;99.90;;;;;;5014666;28;20198;-65
2023/08/26 13:41:35;;;;;;;2.47;2.30;;;19.30;99.90;;;;;;5014865;28;20717;-68
2023/08/26 13:44:01;;;;;;;2.40;2.30;;;19.30;99.90;;;;;;5014774;28;20530;-68
2023/08/26 13:46:27;;;;;;;2.73;2.53;;;19.20;99.90;;;;;;5015032;28;20555;-66
2023/08/26 13:48:52;;;;;;;2.33;2.23;;;19.10;99.90;;;;;;5014662;28;20433;-71
2023/08/26 13:51:19;;;;;;;1.70;1.60;;;19.10;99.90;;;;;;5013125;28;20186;-69
2023/08/26 13:53:45;;;;;;;2.60;2.40;;;19.00;99.90;;;;;;5014421;28;20182;-71
2023/08/26 13:56:11;;;;;;;2.80;2.30;;;19.00;99.90;;;;;;5017071;28;20433;-70
2023/08/26 13:58:37;;;;;;;2.23;2.03;;;18.90;99.90;;;;;;5015555;28;20695;-69
2023/08/26 14:01:03;;;;;;;4.10;3.70;;;18.80;99.90;;;;;;5018026;28;20693;-69
2023/08/26 14:03:29;;;;;;;2.20;2.10;;;18.80;99.90;;;;;;5015550;28;20445;-68
2023/08/26 14:05:55;;;;;;;2.30;2.13;;;18.70;99.90;;;;;;5015652;28;20441;-68
2023/08/26 14:08:22;;;;;;;2.37;2.27;;;18.70;99.90;;;;;;5015011;28;20754;-68
2023/08/26 14:10:47;;;;;;;2.10;1.90;;;18.80;99.90;;;;;;5013744;28;20426;-68
2023/08/26 14:13:13;;;;;;;2.40;2.07;;;18.80;99.90;;;;;;5016388;28;20376;-68
2023/08/26 14:15:41;;;;;;;2.53;2.00;;;18.80;99.90;;;;;;5015719;28;20747;-68
2023/08/26 14:18:07;;;;;;;2.20;2.00;;;18.80;99.90;;;;;;5012972;28;20456;-68
2023/08/26 14:20:33;;;;;;;2.10;2.00;;;18.80;99.90;;;;;;5013700;28;20397;-68
2023/08/26 14:22:58;;;;;;;1.50;1.40;;;18.80;99.90;;;;;;5014372;28;20553;-67
2023/08/26 14:25:24;;;;;;;2.00;1.90;;;18.80;99.90;;;;;;5013636;28;20803;-62
2023/08/26 14:27:49;;;;;;;2.13;2.03;;;18.80;99.90;;;;;;5014046;28;20183;-61
2023/08/26 14:30:15;;;;;;;1.93;1.80;;;18.80;99.90;;;;;;5014321;28;20177;-63
2023/08/26 14:32:41;;;;;;;2.73;2.53;;;18.80;99.90;;;;;;5013970;28;20519;-63
2023/08/26 14:35:07;;;;;;;2.37;2.27;;;18.90;99.90;;;;;;5013635;28;20170;-63
2023/08/26 14:37:32;;;;;;;1.30;1.20;;;18.90;99.90;;;;;;5012694;28;20811;-64
2023/08/26 14:39:58;;;;;;;2.20;2.00;;;18.80;99.90;;;;;;5014063;28;20489;-63
2023/08/26 14:42:23;;;;;;;3.13;1.80;;;18.90;99.90;;;;;;5014127;28;20171;-63
2023/08/26 14:44:49;;;;;;;1.53;1.40;;;18.90;99.90;;;;;;5013234;28;20170;-63
2023/08/26 14:47:15;;;;;;;1.80;1.70;;;18.90;99.90;;;;;;5013681;28;20202;-63
2023/08/26 14:49:40;;;;;;;1.50;1.40;;;19.00;99.90;;;;;;5013730;28;20249;-63
2023/08/26 14:52:06;;;;;;;1.23;1.20;;;19.00;99.90;;;;;;5014090;28;20293;-64
2023/08/26 14:54:31;;;;;;;1.37;1.20;;;18.90;99.90;;;;;;5013476;28;20178;-64
2023/08/26 14:56:57;;;;;;;1.43;1.27;;;18.90;99.90;;;;;;5013531;28;20205;-64
2023/08/26 14:59:23;;;;;;;1.33;1.23;;;18.80;99.90;;;;;;5013871;28;20649;-64
2023/08/26 15:01:48;;;;;;;1.00;1.00;;;18.90;99.90;;;;;;5013677;28;20173;-64
2023/08/26 15:04:15;;;;;;;1.57;1.47;;;18.80;99.90;;;;;;5013378;28;20175;-63
2023/08/26 15:06:40;;;;;;;2.47;1.73;;;19.00;99.90;;;;;;5013604;28;20549;-64
2023/08/26 15:09:06;;;;;;;1.70;1.60;;;19.00;99.90;;;;;;5013136;28;20429;-64
2023/08/26 15:11:32;;;;;;;1.10;1.10;;;19.00;99.90;;;;;;5013564;28;20574;-63
2023/08/26 15:13:57;;;;;;;2.50;1.27;;;19.10;99.90;;;;;;5013180;28;20170;-62
2023/08/26 15:16:24;;;;;;;1.10;1.10;;;19.10;99.90;;;;;;5012889;28;20237;-64
2023/08/26 15:18:50;;;;;;;2.17;1.53;;;19.10;99.90;;;;;;5013644;28;20194;-64
2023/08/26 15:21:18;;;;;;;2.17;1.60;;;19.10;99.90;;;;;;5013324;28;20472;-64
2023/08/26 15:23:45;;;;;;;1.63;1.53;;;19.10;99.90;;;;;;5012720;28;20392;-64
2023/08/26 15:26:11;;;;;;;1.43;1.33;;;19.10;99.90;;;;;;5013297;28;20513;-64
2023/08/26 15:28:36;;;;;;;1.03;1.03;;;19.10;99.90;;;;;;5013245;28;20496;-64
2023/08/26 15:31:02;;;;;;;3.83;1.93;;;19.20;99.90;;;;;;5013200;28;20395;-64
2023/08/26 15:33:29;;;;;;;1.17;1.17;;;19.40;99.90;;;;;;5013315;28;20213;-64
2023/08/26 15:35:55;;;;;;;1.00;1.00;;;19.30;99.90;;;;;;5013340;28;20437;-64
2023/08/26 15:38:22;;;;;;;0.90;0.90;;;19.40;99.90;;;;;;5013195;28;20388;-64
2023/08/26 15:40:58;;;;;;;1.27;1.17;;;19.50;99.90;;;;;;5013425;28;20410;-62
2023/08/26 15:43:25;;;;;;;1.00;1.00;;;19.50;99.90;;;;;;5013193;28;20428;-63
2023/08/26 15:45:51;;;;;;;1.17;1.17;;;19.60;99.90;;;;;;5012940;28;20770;-62
2023/08/26 15:48:17;;;;;;;1.20;1.10;;;19.70;99.90;;;;;;5013424;28;20402;-62
2023/08/26 15:50:42;;;;;;;1.43;1.33;;;19.60;99.90;;;;;;5013200;28;20410;-63
2023/08/26 15:53:12;;;;;;;2.80;1.00;;;19.60;99.90;;;;;;5013384;28;20441;-63
2023/08/26 15:55:38;;;;;;;1.00;1.00;;;19.60;99.90;;;;;;5012656;28;20595;-65
2023/08/26 15:58:03;;;;;;;1.70;1.00;;;19.50;99.90;;;;;;5012340;28;20537;-63
2023/08/26 16:00:30;;;;;;;1.93;1.70;;;19.60;99.90;;;;;;5011100;28;20429;-71
2023/08/26 16:02:56;;;;;;;1.33;1.33;;;19.60;99.90;;;;;;5010849;28;20172;-66
2023/08/26 16:05:21;;;;;;;1.57;1.47;;;19.70;99.90;;;;;;5011981;28;20430;-68
2023/08/26 16:07:47;;;;;;;1.50;1.40;;;19.70;99.90;;;;;;5012818;28;20684;-65
2023/08/26 16:10:13;;;;;;;1.00;1.00;;;19.70;99.90;;;;;;5013460;28;20167;-66
2023/08/26 16:12:38;;;;;;;1.27;1.13;;;19.70;99.90;;;;;;5011392;28;20641;-66
2023/08/26 16:15:05;;;;;;;2.07;1.20;;;19.80;99.90;;;;;;5012747;28;20252;-67
2023/08/26 16:17:30;;;;;;;2.20;1.50;;;19.70;99.90;;;;;;5013115;28;20569;-68
2023/08/26 16:19:56;;;;;;;1.00;1.00;;;19.70;99.90;;;;;;5013529;28;20385;-68
2023/08/26 16:22:22;;;;;;;2.50;1.17;;;19.70;99.90;;;;;;5016538;28;20177;-67
2023/08/26 16:24:47;;;;;;;1.47;1.37;;;19.80;99.90;;;;;;5016075;28;20174;-67
2023/08/26 16:27:13;;;;;;;1.20;1.20;;;19.70;99.90;;;;;;5016161;28;20344;-66
2023/08/26 16:29:39;;;;;;;1.53;1.40;;;19.80;99.90;;;;;;5016626;28;20541;-66
2023/08/26 16:32:05;;;;;;;1.50;1.40;;;19.90;99.90;;;;;;5016780;28;20175;-67
2023/08/26 16:34:31;;;;;;;1.40;1.30;;;20.00;99.90;;;;;;5015885;28;20974;-66
2023/08/26 16:36:57;;;;;;;1.27;1.17;;;19.90;99.90;;;;;;5016346;28;20289;-69
2023/08/26 16:39:23;;;;;;;1.03;0.90;;;19.90;99.90;;;;;;5016651;28;20466;-66
2023/08/26 16:41:48;;;;;;;1.60;1.50;;;19.90;99.90;;;;;;5017279;28;20221;-67
2023/08/26 16:44:14;;;;;;;1.30;1.17;;;19.80;99.90;;;;;;5015219;28;20198;-66
2023/08/26 16:46:40;;;;;;;1.30;1.20;;;19.70;99.90;;;;;;5016133;28;20223;-65
2023/08/26 16:49:05;;;;;;;1.07;0.97;;;19.60;99.90;;;;;;5016194;28;20167;-66
2023/08/26 16:51:31;;;;;;;1.50;1.40;;;19.50;99.90;;;;;;5015949;28;20174;-65